Time;durP1;ratioP1;P1;durP2;ratioP2;P2;SDS_P1;SDS_P2;PMS_P1;PMS_P2;Temp;Humidity;BMP_temperature;BMP_pressure;BME280_temperature;BME280_humidity;BME280_pressure;Samples;Min_cycle;Max_cycle;Signal;HPM_P1;HPM_P2
2023/04/19 00:02:12;;;;;;;;;;;;;;;9.50;74.81;102628.75;5056168;28;19974;-61
2023/04/19 00:04:38;;;;;;;;;;;;;;;9.52;75.21;102619.72;5052924;28;20381;-61
2023/04/19 00:07:03;;;;;;;;;;;;;;;9.54;75.10;102628.44;5049716;28;19916;-61
2023/04/19 00:09:28;;;;;;;;;;;;;;;9.56;75.09;102626.50;5066091;28;19969;-61
2023/04/19 00:11:53;;;;;;;;;;;;;;;9.59;74.69;102626.25;5056640;28;20406;-61
2023/04/19 00:14:19;;;;;;;;;;;;;;;9.61;75.11;102612.88;5057162;28;20390;-61
2023/04/19 00:16:44;;;;;;;;;;;;;;;9.65;74.86;102614.31;5049141;28;19977;-61
2023/04/19 00:19:10;;;;;;;;;;;;;;;9.66;74.75;102618.66;5054233;28;19916;-61
2023/04/19 00:21:35;;;;;;;;;;;;;;;9.69;74.94;102617.56;5059280;28;20377;-61
2023/04/19 00:24:01;;;;;;;;;;;;;;;9.71;74.99;102613.81;5060949;28;20310;-61
2023/04/19 00:26:26;;;;;;;;;;;;;;;9.73;74.96;102617.19;5056944;28;19917;-61
2023/04/19 00:28:51;;;;;;;;;;;;;;;9.76;74.83;102609.00;5069101;28;19923;-61
2023/04/19 00:31:16;;;;;;;;;;;;;;;9.76;75.26;102614.31;5067427;28;20003;-61
2023/04/19 00:33:42;;;;;;;;;;;;;;;9.78;75.25;102614.19;5066275;28;19927;-60
2023/04/19 00:36:07;;;;;;;;;;;;;;;9.80;75.08;102613.09;5059359;28;19991;-61
2023/04/19 00:38:32;;;;;;;;;;;;;;;9.82;75.09;102613.81;5056709;28;19924;-61
2023/04/19 00:40:57;;;;;;;;;;;;;;;9.85;74.72;102604.78;5060090;28;20069;-61
2023/04/19 00:43:23;;;;;;;;;;;;;;;9.85;74.92;102610.94;5063177;28;19916;-61
2023/04/19 00:45:48;;;;;;;;;;;;;;;9.88;75.04;102616.00;5064190;28;19913;-61
2023/04/19 00:48:14;;;;;;;;;;;;;;;9.89;74.91;102609.72;5060425;28;20003;-61
2023/04/19 00:50:39;;;;;;;;;;;;;;;9.89;75.11;102611.53;5067068;28;19927;-61
2023/04/19 00:53:05;;;;;;;;;;;;;;;9.89;75.22;102604.41;5063083;28;19955;-61
2023/04/19 00:55:30;;;;;;;;;;;;;;;9.91;75.70;102609.59;5063745;28;19919;-61
2023/04/19 00:57:56;;;;;;;;;;;;;;;9.91;75.71;102610.44;5067764;28;19919;-61
2023/04/19 01:00:21;;;;;;;;;;;;;;;9.91;75.62;102604.28;5066313;28;19916;-61
2023/04/19 01:02:46;;;;;;;;;;;;;;;9.91;75.78;102605.13;5062807;28;20491;-61
2023/04/19 01:05:12;;;;;;;;;;;;;;;9.91;75.57;102598.97;5064911;28;20141;-61
2023/04/19 01:07:37;;;;;;;;;;;;;;;9.92;75.61;102598.84;5063815;28;19920;-61
2023/04/19 01:10:02;;;;;;;;;;;;;;;9.93;75.77;102605.00;5060186;28;19917;-61
2023/04/19 01:12:27;;;;;;;;;;;;;;;9.95;75.31;102605.72;5062314;28;19917;-61
2023/04/19 01:14:52;;;;;;;;;;;;;;;9.92;75.37;102601.50;5065122;28;19974;-60
2023/04/19 01:17:18;;;;;;;;;;;;;;;9.93;75.50;102610.31;5064347;28;19920;-61
2023/04/19 01:19:43;;;;;;;;;;;;;;;9.94;75.56;102601.38;5055380;28;19939;-61
2023/04/19 01:22:08;;;;;;;;;;;;;;;9.93;75.89;102600.53;5060401;28;19916;-61
2023/04/19 01:24:33;;;;;;;;;;;;;;;9.95;75.88;102600.41;5057953;28;19939;-61
2023/04/19 01:26:59;;;;;;;;;;;;;;;9.97;75.71;102595.00;5058443;28;19970;-61
2023/04/19 01:29:24;;;;;;;;;;;;;;;10.00;75.71;102606.19;5052842;28;19917;-61
2023/04/19 01:31:52;;;;;;;;;;;;;;;9.98;75.89;102599.31;5057827;28;19928;-61
2023/04/19 01:34:17;;;;;;;;;;;;;;;9.99;75.95;102596.53;5060293;28;19917;-61
2023/04/19 01:36:42;;;;;;;;;;;;;;;9.98;76.11;102592.22;5061301;28;19924;-61
2023/04/19 01:39:08;;;;;;;;;;;;;;;10.03;75.86;102589.19;5066068;28;19912;-61
2023/04/19 01:41:33;;;;;;;;;;;;;;;10.02;76.22;102596.28;5058314;28;20003;-61
2023/04/19 01:43:59;;;;;;;;;;;;;;;10.02;76.48;102590.16;5065994;28;19931;-61
2023/04/19 01:46:24;;;;;;;;;;;;;;;10.04;76.39;102590.88;5059989;28;20000;-61
2023/04/19 01:48:50;;;;;;;;;;;;;;;10.06;76.59;102592.41;5062023;28;19999;-61
2023/04/19 01:51:16;;;;;;;;;;;;;;;10.09;76.75;102586.88;5062370;28;20007;-63
2023/04/19 01:53:41;;;;;;;;;;;;;;;10.10;76.60;102577.94;5056892;28;20331;-60
2023/04/19 01:56:06;;;;;;;;;;;;;;;10.14;76.24;102582.06;5062991;28;19917;-61
2023/04/19 01:58:31;;;;;;;;;;;;;;;10.13;76.40;102583.00;5068634;28;20407;-61
2023/04/19 02:00:56;;;;;;;;;;;;;;;10.16;76.46;102587.22;5066077;28;19913;-61
2023/04/19 02:03:22;;;;;;;;;;;;;;;10.20;76.86;102580.69;5063802;28;19924;-61
2023/04/19 02:05:47;;;;;;;;;;;;;;;10.21;76.51;102580.59;5061998;28;19917;-61
2023/04/19 02:08:12;;;;;;;;;;;;;;;10.21;76.84;102572.63;5059564;28;19916;-61
2023/04/19 02:10:37;;;;;;;;;;;;;;;10.20;76.99;102580.69;5057942;28;19919;-61
2023/04/19 02:13:02;;;;;;;;;;;;;;;10.20;76.87;102572.72;5063424;28;19917;-61
2023/04/19 02:15:27;;;;;;;;;;;;;;;10.20;77.16;102581.56;5058883;28;19917;-61
2023/04/19 02:17:53;;;;;;;;;;;;;;;10.22;77.18;102576.97;5064631;28;20012;-61
2023/04/19 02:20:18;;;;;;;;;;;;;;;10.22;76.85;102576.13;5056511;28;19920;-61
2023/04/19 02:22:43;;;;;;;;;;;;;;;10.22;76.91;102582.28;5059524;28;20498;-61
2023/04/19 02:25:08;;;;;;;;;;;;;;;10.21;77.05;102575.28;5061885;28;19917;-61
2023/04/19 02:27:33;;;;;;;;;;;;;;;10.18;77.04;102577.31;5060778;28;19939;-61
2023/04/19 02:29:59;;;;;;;;;;;;;;;10.15;77.45;102575.78;5056307;28;19920;-60
2023/04/19 02:32:24;;;;;;;;;;;;;;;10.13;77.45;102584.84;5065296;28;19920;-61
2023/04/19 02:34:49;;;;;;;;;;;;;;;10.11;77.66;102576.97;5061362;28;19975;-61
2023/04/19 02:37:14;;;;;;;;;;;;;;;10.06;77.59;102576.50;5056530;28;20417;-61
2023/04/19 02:39:41;;;;;;;;;;;;;;;10.04;77.32;102573.13;5063768;28;19962;-61
2023/04/19 02:42:06;;;;;;;;;;;;;;;10.01;77.67;102572.53;5063401;28;20270;-61
2023/04/19 02:44:31;;;;;;;;;;;;;;;9.97;77.52;102579.91;5055361;28;20417;-61
2023/04/19 02:46:56;;;;;;;;;;;;;;;9.96;77.81;102577.38;5062172;28;19921;-61
2023/04/19 02:49:22;;;;;;;;;;;;;;;9.92;77.64;102579.44;5063560;28;19952;-61
2023/04/19 02:51:49;;;;;;;;;;;;;;;9.90;77.72;102581.38;5062908;28;19924;-61
2023/04/19 02:54:14;;;;;;;;;;;;;;;9.89;78.10;102585.84;5056816;28;19927;-61
2023/04/19 02:56:39;;;;;;;;;;;;;;;9.88;78.16;102586.81;5051442;28;19975;-61
2023/04/19 02:59:05;;;;;;;;;;;;;;;9.88;78.31;102585.97;5057165;28;19922;-61
2023/04/19 03:01:30;;;;;;;;;;;;;;;9.88;78.19;102585.97;5062590;28;20007;-61
2023/04/19 03:03:56;;;;;;;;;;;;;;;9.87;78.18;102581.63;5055743;28;19963;-61
2023/04/19 03:06:21;;;;;;;;;;;;;;;9.85;78.27;102584.41;5063920;28;19916;-61
2023/04/19 03:08:46;;;;;;;;;;;;;;;9.85;78.14;102584.41;5057771;28;19970;-61
2023/04/19 03:11:11;;;;;;;;;;;;;;;9.85;78.44;102588.88;5065995;28;19955;-62
2023/04/19 03:13:38;;;;;;;;;;;;;;;9.85;78.44;102583.56;5060348;28;19928;-61
2023/04/19 03:16:04;;;;;;;;;;;;;;;9.84;78.67;102585.38;5059898;28;19995;-61
2023/04/19 03:18:29;;;;;;;;;;;;;;;9.85;78.80;102583.56;5057702;28;19917;-61
2023/04/19 03:20:55;;;;;;;;;;;;;;;9.82;78.47;102579.31;5053929;28;20386;-61
2023/04/19 03:23:20;;;;;;;;;;;;;;;9.81;78.91;102579.44;5058674;28;19927;-61
2023/04/19 03:25:45;;;;;;;;;;;;;;;9.78;78.98;102566.41;5056556;28;19944;-61
2023/04/19 03:28:10;;;;;;;;;;;;;;;9.78;79.13;102577.88;5073928;28;20337;-61
2023/04/19 03:30:35;;;;;;;;;;;;;;;9.79;79.00;102568.09;5054367;28;19924;-61
2023/04/19 03:33:01;;;;;;;;;;;;;;;9.80;79.13;102575.09;5049625;28;19920;-61
2023/04/19 03:35:28;;;;;;;;;;;;;;;9.80;79.11;102578.59;5064852;28;19917;-61
2023/04/19 03:37:53;;;;;;;;;;;;;;;9.82;79.37;102575.81;5062320;28;19920;-61
2023/04/19 03:40:18;;;;;;;;;;;;;;;9.82;79.36;102573.16;5062202;28;19919;-61
2023/04/19 03:42:43;;;;;;;;;;;;;;;9.82;79.25;102570.50;5058484;28;20431;-60
2023/04/19 03:45:09;;;;;;;;;;;;;;;9.81;79.35;102568.81;5056756;28;19913;-61
2023/04/19 03:47:34;;;;;;;;;;;;;;;9.80;79.27;102569.78;5062141;28;19928;-61
2023/04/19 03:50:00;;;;;;;;;;;;;;;9.78;79.35;102577.03;5059059;28;19916;-61
2023/04/19 03:52:26;;;;;;;;;;;;;;;9.79;79.61;102568.09;5062113;28;19924;-61
2023/04/19 03:54:51;;;;;;;;;;;;;;;9.78;79.32;102575.22;5061303;28;19923;-61
2023/04/19 03:57:16;;;;;;;;;;;;;;;9.76;79.40;102573.66;5058756;28;19913;-61
2023/04/19 03:59:41;;;;;;;;;;;;;;;9.74;79.45;102579.09;5052774;28;19974;-61
2023/04/19 04:02:06;;;;;;;;;;;;;;;9.74;79.32;102570.28;5065758;28;20485;-60
2023/04/19 04:04:32;;;;;;;;;;;;;;;9.75;79.14;102569.31;5051580;28;20421;-61
2023/04/19 04:06:57;;;;;;;;;;;;;;;9.74;79.28;102571.13;5049536;28;19931;-60
2023/04/19 04:09:22;;;;;;;;;;;;;;;9.72;79.43;102566.91;5059607;28;20390;-61
2023/04/19 04:11:47;;;;;;;;;;;;;;;9.71;79.58;102565.22;5051089;28;20390;-61
2023/04/19 04:14:12;;;;;;;;;;;;;;;9.70;79.14;102569.69;5060685;28;19924;-61
2023/04/19 04:16:38;;;;;;;;;;;;;;;9.66;79.31;102570.91;5057003;28;19916;-61
2023/04/19 04:19:03;;;;;;;;;;;;;;;9.64;79.00;102564.88;5061082;28;19912;-61
2023/04/19 04:21:28;;;;;;;;;;;;;;;9.61;79.23;102571.28;5065412;28;19925;-61
2023/04/19 04:23:53;;;;;;;;;;;;;;;9.59;78.73;102577.69;5059109;28;20016;-61
2023/04/19 04:26:19;;;;;;;;;;;;;;;9.58;79.02;102571.53;5068506;28;20019;-61
2023/04/19 04:28:44;;;;;;;;;;;;;;;9.57;78.39;102571.66;5068449;28;19932;-61
2023/04/19 04:31:11;;;;;;;;;;;;;;;9.51;78.42;102574.75;5059116;28;19917;-61
2023/04/19 04:33:37;;;;;;;;;;;;;;;9.44;77.95;102578.88;5062373;28;19990;-61
2023/04/19 04:36:02;;;;;;;;;;;;;;;9.39;77.96;102568.63;5067059;28;20366;-61
2023/04/19 04:38:28;;;;;;;;;;;;;;;9.34;78.05;102577.91;5062780;28;19917;-61
2023/04/19 04:40:54;;;;;;;;;;;;;;;9.29;77.70;102580.94;5066621;28;19916;-61
2023/04/19 04:43:20;;;;;;;;;;;;;;;9.24;77.77;102583.06;5066406;28;19981;-61
2023/04/19 04:45:45;;;;;;;;;;;;;;;9.19;78.04;102574.63;5058104;28;20471;-61
2023/04/19 04:48:11;;;;;;;;;;;;;;;9.13;78.17;102583.91;5063203;28;19916;-61
2023/04/19 04:50:36;;;;;;;;;;;;;;;9.07;78.02;102592.34;5060606;28;19917;-61
2023/04/19 04:53:01;;;;;;;;;;;;;;;9.05;78.08;102588.13;5058684;28;20546;-61
2023/04/19 04:55:26;;;;;;;;;;;;;;;8.99;77.88;102592.94;5063231;28;19917;-61
2023/04/19 04:57:51;;;;;;;;;;;;;;;8.96;78.11;102589.66;5064590;28;19923;-61
2023/04/19 05:00:17;;;;;;;;;;;;;;;8.91;78.45;102590.00;5062804;28;19912;-61
2023/04/19 05:02:42;;;;;;;;;;;;;;;8.90;78.30;102595.41;5065274;28;19948;-61
2023/04/19 05:05:10;;;;;;;;;;;;;;;8.88;78.42;102590.25;5056450;28;20432;-61
2023/04/19 05:07:35;;;;;;;;;;;;;;;8.87;78.48;102593.84;5061516;28;20026;-61
2023/04/19 05:10:00;;;;;;;;;;;;;;;8.85;78.93;102586.97;5062856;28;20099;-61
2023/04/19 05:12:25;;;;;;;;;;;;;;;8.84;79.02;102591.44;5070060;28;20286;-61
2023/04/19 05:14:50;;;;;;;;;;;;;;;8.83;79.10;102599.50;5071297;28;19967;-61
2023/04/19 05:17:15;;;;;;;;;;;;;;;8.83;79.04;102595.03;5066954;28;20317;-61
2023/04/19 05:19:41;;;;;;;;;;;;;;;8.77;79.14;102584.91;5066078;28;20337;-61
2023/04/19 05:22:06;;;;;;;;;;;;;;;8.83;79.22;102603.00;5062136;28;19952;-61
2023/04/19 05:24:31;;;;;;;;;;;;;;;8.86;79.60;102601.91;5070277;28;19940;-61
2023/04/19 05:26:56;;;;;;;;;;;;;;;8.86;79.16;102601.91;5068335;28;19948;-61
2023/04/19 05:29:21;;;;;;;;;;;;;;;8.84;79.34;102604.69;5068369;28;19916;-61
2023/04/19 05:31:46;;;;;;;;;;;;;;;8.81;79.27;102604.06;5068783;28;19977;-61
2023/04/19 05:34:12;;;;;;;;;;;;;;;8.77;79.18;102611.41;5064950;28;19912;-61
2023/04/19 05:36:37;;;;;;;;;;;;;;;8.75;79.20;102605.38;5063323;28;19965;-60
2023/04/19 05:39:02;;;;;;;;;;;;;;;8.73;79.59;102602.00;5066744;28;19952;-61
2023/04/19 05:41:27;;;;;;;;;;;;;;;8.72;79.33;102602.13;5063183;28;19912;-61
2023/04/19 05:43:52;;;;;;;;;;;;;;;8.73;79.43;102603.81;5066887;28;19952;-60
2023/04/19 05:46:18;;;;;;;;;;;;;;;8.76;79.13;102604.44;5069894;28;19943;-61
2023/04/19 05:48:43;;;;;;;;;;;;;;;8.79;79.42;102598.88;5057203;28;19920;-61
2023/04/19 05:51:08;;;;;;;;;;;;;;;8.82;79.19;102598.66;5065478;28;20431;-61
2023/04/19 05:53:33;;;;;;;;;;;;;;;8.88;79.26;102600.00;5062634;28;19999;-61
2023/04/19 05:55:58;;;;;;;;;;;;;;;8.94;78.87;102596.88;5069868;28;20007;-61
2023/04/19 05:58:23;;;;;;;;;;;;;;;9.00;78.35;102596.44;5060007;28;19935;-60
2023/04/19 06:00:50;;;;;;;;;;;;;;;9.03;77.93;102601.50;5065024;28;20010;-61
2023/04/19 06:03:15;;;;;;;;;;;;;;;9.10;77.64;102607.16;5067365;28;19920;-61
2023/04/19 06:05:40;;;;;;;;;;;;;;;9.17;77.11;102595.97;5068507;28;19922;-61
2023/04/19 06:08:06;;;;;;;;;;;;;;;9.27;76.84;102606.72;5060836;28;19978;-61
2023/04/19 06:10:31;;;;;;;;;;;;;;;9.42;76.23;102597.56;5060200;28;19939;-61
2023/04/19 06:12:56;;;;;;;;;;;;;;;9.46;75.06;102604.31;5057658;28;19916;-60
2023/04/19 06:15:21;;;;;;;;;;;;;;;9.53;74.40;102602.00;5055110;28;21211;-60
2023/04/19 06:17:46;;;;;;;;;;;;;;;9.61;73.32;102603.09;5057870;28;19913;-60
2023/04/19 06:20:13;;;;;;;;;;;;;;;9.66;72.99;102600.09;5064982;28;19924;-61
2023/04/19 06:22:41;;;;;;;;;;;;;;;9.69;72.69;102610.47;5057695;28;19921;-60
2023/04/19 06:25:06;;;;;;;;;;;;;;;9.77;72.11;102604.53;5059486;28;19974;-61
2023/04/19 06:27:32;;;;;;;;;;;;;;;9.82;71.16;102613.81;5061246;28;19920;-61
2023/04/19 06:29:59;;;;;;;;;;;;;;;9.85;70.34;102602.13;5058904;28;19913;-61
2023/04/19 06:32:24;;;;;;;;;;;;;;;9.92;69.87;102608.63;5062114;28;19938;-60
2023/04/19 06:34:50;;;;;;;;;;;;;;;9.93;69.73;102600.53;5067910;28;20374;-60
2023/04/19 06:37:15;;;;;;;;;;;;;;;10.02;69.56;102611.38;5068718;28;19916;-61
2023/04/19 06:39:40;;;;;;;;;;;;;;;10.13;68.88;102598.94;5066751;28;19920;-61
2023/04/19 06:42:05;;;;;;;;;;;;;;;10.16;68.54;102597.84;5066647;28;19928;-61
2023/04/19 06:44:31;;;;;;;;;;;;;;;10.20;67.36;102593.97;5066485;28;19928;-60
2023/04/19 06:46:56;;;;;;;;;;;;;;;10.23;67.20;102602.56;5063581;28;19912;-61
2023/04/19 06:49:21;;;;;;;;;;;;;;;10.30;66.61;102599.41;5069278;28;20393;-61
2023/04/19 06:51:46;;;;;;;;;;;;;;;10.34;66.54;102599.00;5062080;28;19942;-60
2023/04/19 06:54:12;;;;;;;;;;;;;;;10.39;65.61;102598.63;5066493;28;20401;-60
2023/04/19 06:56:43;;;;;;;;;;;;;;;10.46;65.39;102602.50;5062409;28;19923;-61
2023/04/19 06:59:09;;;;;;;;;;;;;;;10.49;64.84;102589.78;5061777;28;19917;-60
2023/04/19 07:01:34;;;;;;;;;;;;;;;10.55;65.08;102602.56;5064054;28;20829;-60
2023/04/19 07:04:00;;;;;;;;;;;;;;;10.62;65.31;102596.75;5064380;28;19928;-61
2023/04/19 07:06:25;;;;;;;;;;;;;;;10.66;64.73;102601.66;5060568;28;20388;-60
2023/04/19 07:08:51;;;;;;;;;;;;;;;10.69;63.75;102593.44;5065752;28;19917;-61
2023/04/19 07:11:16;;;;;;;;;;;;;;;10.70;63.62;102596.97;5065108;28;20019;-61
2023/04/19 07:13:41;;;;;;;;;;;;;;;10.74;63.50;102598.38;5068113;28;20642;-60
2023/04/19 07:16:06;;;;;;;;;;;;;;;10.79;63.24;102593.53;5061606;28;19921;-61
2023/04/19 07:18:32;;;;;;;;;;;;;;;10.81;62.79;102599.56;5058781;28;19917;-61
2023/04/19 07:20:57;;;;;;;;;;;;;;;10.88;62.60;102594.56;5063428;28;19919;-60
2023/04/19 07:23:22;;;;;;;;;;;;;;;10.95;62.39;102593.06;5066568;28;19917;-61
2023/04/19 07:25:47;;;;;;;;;;;;;;;11.03;62.23;102593.28;5059958;28;20424;-61
2023/04/19 07:28:12;;;;;;;;;;;;;;;11.09;61.67;102595.41;5071609;28;19924;-61
2023/04/19 07:30:38;;;;;;;;;;;;;;;11.14;61.55;102587.88;5063123;28;20689;-60
2023/04/19 07:33:03;;;;;;;;;;;;;;;11.18;60.82;102587.47;5065726;28;19999;-61
2023/04/19 07:35:29;;;;;;;;;;;;;;;11.21;60.56;102581.03;5060635;28;19921;-61
2023/04/19 07:37:54;;;;;;;;;;;;;;;11.26;60.51;102586.81;5063917;28;20065;-61
2023/04/19 07:40:19;;;;;;;;;;;;;;;11.31;59.73;102587.28;5064899;28;20011;-61
2023/04/19 07:42:44;;;;;;;;;;;;;;;11.36;59.42;102586.88;5064200;28;20392;-61
2023/04/19 07:45:10;;;;;;;;;;;;;;;11.45;59.82;102578.09;5064186;28;19916;-61
2023/04/19 07:47:35;;;;;;;;;;;;;;;11.49;58.96;102585.66;5059753;28;19919;-61
2023/04/19 07:50:00;;;;;;;;;;;;;;;11.56;58.65;102579.78;5066867;28;19917;-60
2023/04/19 07:52:25;;;;;;;;;;;;;;;11.63;58.36;102589.78;5063632;28;19951;-60
2023/04/19 07:54:50;;;;;;;;;;;;;;;11.69;58.64;102589.25;5060897;28;19920;-60
2023/04/19 07:57:16;;;;;;;;;;;;;;;11.76;58.09;102581.56;5069108;28;20035;-60
2023/04/19 07:59:41;;;;;;;;;;;;;;;11.85;57.45;102585.25;5067925;28;19916;-61
2023/04/19 08:02:06;;;;;;;;;;;;;;;11.87;57.05;102586.81;5067974;28;19918;-61
2023/04/19 08:04:32;;;;;;;;;;;;;;;11.89;57.38;102581.34;5066413;28;19920;-61
2023/04/19 08:06:58;;;;;;;;;;;;;;;11.97;57.64;102581.50;5067235;28;19916;-61
2023/04/19 08:09:23;;;;;;;;;;;;;;;12.03;56.55;102572.97;5065715;28;20500;-61
2023/04/19 08:11:48;;;;;;;;;;;;;;;12.08;56.54;102579.56;5066997;28;19952;-61
2023/04/19 08:14:13;;;;;;;;;;;;;;;12.13;56.12;102576.47;5066179;28;19924;-61
2023/04/19 08:16:39;;;;;;;;;;;;;;;12.18;55.67;102581.41;5065996;28;19916;-61
2023/04/19 08:19:04;;;;;;;;;;;;;;;12.15;55.48;102582.53;5065404;28;19916;-61
2023/04/19 08:21:30;;;;;;;;;;;;;;;12.19;54.85;102581.28;5067585;28;20007;-60
2023/04/19 08:23:55;;;;;;;;;;;;;;;12.21;54.67;102581.97;5068017;28;19920;-61
2023/04/19 08:26:21;;;;;;;;;;;;;;;12.24;54.29;102584.34;5066305;28;20436;-61
2023/04/19 08:28:46;;;;;;;;;;;;;;;12.28;54.15;102582.25;5072283;28;19921;-60
2023/04/19 08:31:12;;;;;;;;;;;;;;;12.32;53.44;102576.50;5062937;28;19920;-61
2023/04/19 08:33:37;;;;;;;;;;;;;;;12.36;52.86;102582.38;5066467;28;19916;-61
2023/04/19 08:36:02;;;;;;;;;;;;;;;12.39;52.11;102582.09;5066610;28;20003;-60
2023/04/19 08:38:27;;;;;;;;;;;;;;;12.40;51.99;102571.31;5065764;28;19921;-61
2023/04/19 08:40:54;;;;;;;;;;;;;;;12.43;51.45;102578.19;5064784;28;19995;-60
2023/04/19 08:43:19;;;;;;;;;;;;;;;12.46;50.57;102569.09;5062818;28;19969;-61
2023/04/19 08:45:46;;;;;;;;;;;;;;;12.45;51.04;102570.91;5066570;28;19920;-61
2023/04/19 08:48:11;;;;;;;;;;;;;;;12.50;50.74;102568.66;5062999;28;20007;-61
2023/04/19 08:50:37;;;;;;;;;;;;;;;12.58;50.42;102568.78;5070860;28;20055;-61
2023/04/19 08:53:03;;;;;;;;;;;;;;;12.66;50.71;102576.91;5068187;28;19916;-61
2023/04/19 08:55:29;;;;;;;;;;;;;;;12.76;49.87;102576.09;5068692;28;19920;-60
2023/04/19 08:57:55;;;;;;;;;;;;;;;12.82;49.42;102581.69;5062035;28;19919;-61
2023/04/19 09:00:20;;;;;;;;;;;;;;;12.87;49.20;102570.59;5066213;28;19916;-61
2023/04/19 09:02:46;;;;;;;;;;;;;;;12.91;48.76;102578.16;5071074;28;20012;-61
2023/04/19 09:05:15;;;;;;;;;;;;;;;12.97;48.65;102574.91;5067880;28;20397;-60
2023/04/19 09:07:41;;;;;;;;;;;;;;;13.01;48.10;102573.66;5064784;28;19932;-61
2023/04/19 09:10:06;;;;;;;;;;;;;;;13.09;48.02;102567.59;5057909;28;19917;-61
2023/04/19 09:12:33;;;;;;;;;;;;;;;13.11;47.86;102570.94;5066669;28;19924;-61
2023/04/19 09:14:59;;;;;;;;;;;;;;;13.17;47.51;102577.53;5062629;28;19917;-61
2023/04/19 09:17:24;;;;;;;;;;;;;;;13.20;47.46;102564.78;5061212;28;20045;-61
2023/04/19 09:19:49;;;;;;;;;;;;;;;13.22;47.58;102565.47;5060158;28;19923;-61
2023/04/19 09:22:15;;;;;;;;;;;;;;;13.36;47.79;102563.31;5067268;28;19913;-61
2023/04/19 09:24:40;;;;;;;;;;;;;;;13.48;47.62;102567.47;5066936;28;19925;-61
2023/04/19 09:27:05;;;;;;;;;;;;;;;13.57;47.49;102572.75;5069690;28;19916;-61
2023/04/19 09:29:30;;;;;;;;;;;;;;;13.75;48.04;102566.63;5067343;28;19955;-62
2023/04/19 09:31:57;;;;;;;;;;;;;;;13.91;47.50;102573.03;5068468;28;20365;-61
2023/04/19 09:34:23;;;;;;;;;;;;;;;14.05;46.98;102565.47;5068864;28;19916;-62
2023/04/19 09:36:48;;;;;;;;;;;;;;;14.12;45.89;102567.38;5064909;28;19919;-61
2023/04/19 09:39:14;;;;;;;;;;;;;;;14.02;45.97;102568.44;5060801;28;19916;-61
2023/04/19 09:41:52;;;;;;;;;;;;;;;14.02;45.58;102557.75;5062760;28;20321;-61
2023/04/19 09:44:18;;;;;;;;;;;;;;;13.85;45.95;102565.59;5069310;28;19935;-62
2023/04/19 09:46:45;;;;;;;;;;;;;;;13.98;45.63;102557.22;5066642;28;20297;-62
2023/04/19 09:49:14;;;;;;;;;;;;;;;14.14;45.20;102559.22;5063384;28;19962;-62
2023/04/19 09:51:40;;;;;;;;;;;;;;;14.27;45.72;102555.19;5059870;28;19922;-62
2023/04/19 09:54:05;;;;;;;;;;;;;;;14.46;45.58;102556.91;5066998;28;19920;-61
2023/04/19 09:56:30;;;;;;;;;;;;;;;14.62;45.29;102550.00;5064496;28;20384;-62
2023/04/19 09:58:55;;;;;;;;;;;;;;;14.67;44.26;102550.34;5068864;28;19912;-62
2023/04/19 10:01:21;;;;;;;;;;;;;;;14.70;44.07;102561.59;5069618;28;20370;-62
2023/04/19 10:03:47;;;;;;;;;;;;;;;14.70;42.80;102560.75;5069578;28;19939;-62
2023/04/19 10:06:17;;;;;;;;;;;;;;;14.61;41.79;102551.81;5070458;28;20030;-62
2023/04/19 10:08:44;;;;;;;;;;;;;;;14.46;42.21;102548.88;5068975;28;19923;-61
2023/04/19 10:11:09;;;;;;;;;;;;;;;14.39;40.96;102558.44;5070255;28;19952;-61
2023/04/19 10:13:36;;;;;;;;;;;;;;;14.34;41.22;102547.38;5068673;28;19967;-61
2023/04/19 10:16:02;;;;;;;;;;;;;;;14.31;41.06;102560.22;5068960;28;19996;-62
2023/04/19 10:18:27;;;;;;;;;;;;;;;14.37;41.15;102562.28;5068143;28;19924;-61
2023/04/19 10:20:59;;;;;;;;;;;;;;;14.43;40.86;102567.03;5067338;28;19923;-61
2023/04/19 10:23:25;;;;;;;;;;;;;;;14.50;40.90;102544.06;5069434;28;19923;-62
2023/04/19 10:25:54;;;;;;;;;;;;;;;14.59;40.56;102553.81;5069038;28;19916;-62
2023/04/19 10:28:20;;;;;;;;;;;;;;;14.63;40.72;102559.69;5074202;28;19947;-61
2023/04/19 10:30:51;;;;;;;;;;;;;;;14.69;40.80;102548.38;5068429;28;19968;-61
2023/04/19 10:33:23;;;;;;;;;;;;;;;14.81;41.00;102545.31;5068969;28;19971;-62
2023/04/19 10:35:49;;;;;;;;;;;;;;;14.98;41.02;102535.53;5058167;28;19917;-61
2023/04/19 10:38:15;;;;;;;;;;;;;;;15.06;39.79;102524.06;5070240;28;19912;-62
2023/04/19 10:40:59;;;;;;;;;;;;;;;15.07;39.73;102536.44;5069209;28;19919;-62
2023/04/19 10:43:25;;;;;;;;;;;;;;;15.11;39.70;102538.63;5065566;28;19921;-61
2023/04/19 10:45:51;;;;;;;;;;;;;;;15.01;38.30;102540.56;5063146;28;20634;-62
2023/04/19 10:48:26;;;;;;;;;;;;;;;15.02;38.58;102539.56;5063265;28;19920;-61
2023/04/19 10:50:58;;;;;;;;;;;;;;;15.09;38.43;102531.75;5066801;28;19928;-62
2023/04/19 10:53:42;;;;;;;;;;;;;;;15.12;38.64;102536.78;5066469;28;20389;-62
2023/04/19 10:56:07;;;;;;;;;;;;;;;15.17;38.74;102537.16;5064882;28;19952;-62
2023/04/19 10:58:52;;;;;;;;;;;;;;;15.15;38.33;102542.66;5068470;28;19989;-62
2023/04/19 11:01:38;;;;;;;;;;;;;;;15.08;37.65;102530.94;5067659;28;19920;-62
2023/04/19 11:04:03;;;;;;;;;;;;;;;15.04;38.54;102532.25;5062623;28;19965;-61
2023/04/19 11:06:29;;;;;;;;;;;;;;;15.17;39.85;102527.28;5062387;28;19991;-62
2023/04/19 11:08:55;;;;;;;;;;;;;;;15.24;38.82;102530.16;5058365;28;19912;-62
2023/04/19 11:11:21;;;;;;;;;;;;;;;15.24;39.45;102526.63;5063545;28;19947;-62
2023/04/19 11:13:46;;;;;;;;;;;;;;;15.28;39.05;102528.00;5061488;28;20518;-62
2023/04/19 11:16:12;;;;;;;;;;;;;;;15.32;39.46;102521.31;5065346;28;20432;-62
2023/04/19 11:18:37;;;;;;;;;;;;;;;15.39;39.38;102520.53;5068757;28;19927;-62
2023/04/19 11:21:02;;;;;;;;;;;;;;;15.52;39.72;102516.56;5065874;28;19959;-62
2023/04/19 11:23:27;;;;;;;;;;;;;;;15.61;39.21;102521.84;5056110;28;20007;-62
2023/04/19 11:25:54;;;;;;;;;;;;;;;15.66;38.99;102527.53;5051346;28;19920;-62
2023/04/19 11:28:20;;;;;;;;;;;;;;;15.69;39.23;102521.00;5063575;28;19958;-63
2023/04/19 11:30:46;;;;;;;;;;;;;;;15.75;38.45;102515.00;5051595;28;19921;-62
2023/04/19 11:33:11;;;;;;;;;;;;;;;15.80;38.01;102489.38;5056640;28;19919;-62
2023/04/19 11:35:36;;;;;;;;;;;;;;;15.63;37.24;102492.22;5057297;28;19971;-61
2023/04/19 11:38:03;;;;;;;;;;;;;;;15.53;37.41;102511.03;5059868;28;19912;-62
2023/04/19 11:40:28;;;;;;;;;;;;;;;15.60;38.04;102493.34;5063195;28;19924;-62
2023/04/19 11:42:54;;;;;;;;;;;;;;;15.44;37.09;102488.75;5064662;28;19924;-62
2023/04/19 11:45:24;;;;;;;;;;;;;;;15.26;36.93;102490.69;5064826;28;20472;-62
2023/04/19 11:47:49;;;;;;;;;;;;;;;15.18;37.44;102490.66;5056126;28;19944;-62
2023/04/19 11:50:33;;;;;;;;;;;;;;;15.25;37.34;102480.13;5066074;28;20382;-62
2023/04/19 11:52:59;;;;;;;;;;;;;;;15.42;37.45;102471.19;5053278;28;20007;-62
2023/04/19 11:55:25;;;;;;;;;;;;;;;15.39;37.21;102480.38;5067248;28;20016;-61
2023/04/19 11:57:50;;;;;;;;;;;;;;;15.50;37.05;102469.34;5063819;28;21411;-62
2023/04/19 12:00:16;;;;;;;;;;;;;;;15.65;37.12;102466.94;5062915;28;19925;-61
2023/04/19 12:02:42;;;;;;;;;;;;;;;15.84;36.13;102454.22;5062815;28;19921;-62
2023/04/19 12:05:08;;;;;;;;;;;;;;;15.86;34.99;102449.53;5067746;28;19966;-61
2023/04/19 12:07:34;;;;;;;;;;;;;;;15.76;34.57;102455.91;5066551;28;19916;-62
2023/04/19 12:10:09;;;;;;;;;;;;;;;15.77;35.48;102457.56;5063337;28;20293;-61
2023/04/19 12:12:34;;;;;;;;;;;;;;;15.86;34.56;102455.72;5057775;28;20274;-61
2023/04/19 12:14:59;;;;;;;;;;;;;;;15.86;35.39;102457.56;5063512;28;20403;-62
2023/04/19 12:17:24;;;;;;;;;;;;;;;15.93;34.96;102450.56;5068562;28;19913;-62
2023/04/19 12:19:50;;;;;;;;;;;;;;;15.97;35.27;102447.38;5064324;28;19916;-62
2023/04/19 12:22:19;;;;;;;;;;;;;;;16.04;35.73;102439.50;5062872;28;19995;-62
2023/04/19 12:24:44;;;;;;;;;;;;;;;16.21;35.38;102443.88;5065127;28;20296;-62
2023/04/19 12:27:10;;;;;;;;;;;;;;;16.28;34.51;102436.81;5073553;28;20003;-62
2023/04/19 12:29:36;;;;;;;;;;;;;;;16.28;35.40;102444.03;5069247;28;19920;-62
2023/04/19 12:32:01;;;;;;;;;;;;;;;16.40;34.74;102438.13;5057367;28;19916;-62
2023/04/19 12:34:27;;;;;;;;;;;;;;;16.32;34.57;102432.78;5057693;28;19959;-62